createdAt,value
2022-12-12T00:02:03.302Z,49890.47
2022-12-12T00:04:29.883Z,49908.44
2022-12-12T00:06:56.469Z,49934.34
2022-12-12T00:09:23.577Z,49904.44
2022-12-12T00:11:50.318Z,49876.53
2022-12-12T00:14:17.013Z,49866.56
2022-12-12T00:16:43.777Z,49898.47
2022-12-12T00:19:10.594Z,49898.47
2022-12-12T00:21:37.376Z,49908.44
2022-12-12T00:24:05.725Z,49910.41
2022-12-12T00:26:34.587Z,49862.56
2022-12-12T00:29:03.593Z,49946.31
2022-12-12T00:31:30.387Z,49904.44
2022-12-12T00:33:57.158Z,49922.38
2022-12-12T00:36:26.786Z,49868.56
2022-12-12T00:38:54.301Z,49918.38
2022-12-12T00:41:21.805Z,49894.47
2022-12-12T00:43:48.959Z,49910.41
2022-12-12T00:46:17.275Z,49902.44
2022-12-12T00:48:44.058Z,49902.44
2022-12-12T00:51:16.371Z,49904.44
2022-12-12T00:53:42.983Z,49880.50
2022-12-12T00:56:09.636Z,49918.38
2022-12-12T00:58:36.268Z,49950.28
2022-12-12T01:01:09.651Z,49930.34
2022-12-12T01:03:38.483Z,49918.38
2022-12-12T01:06:05.584Z,49904.44
2022-12-12T01:08:32.307Z,49888.50
2022-12-12T01:10:59.698Z,49894.47
2022-12-12T01:13:26.685Z,49916.41
2022-12-12T01:15:53.346Z,49898.47
2022-12-12T01:18:20.217Z,49928.34
2022-12-12T01:20:47.433Z,49898.47
2022-12-12T01:23:14.159Z,49910.41
2022-12-12T01:25:40.815Z,49898.47
2022-12-12T01:28:08.104Z,49866.56
2022-12-12T01:30:35.039Z,49886.50
2022-12-12T01:33:01.740Z,49924.38
2022-12-12T01:35:28.386Z,49958.25
2022-12-12T01:37:55.011Z,49898.47
2022-12-12T01:40:25.377Z,49892.47
2022-12-12T01:42:52.210Z,49906.44
2022-12-12T01:45:56.603Z,49928.34
2022-12-12T01:48:30.407Z,49882.50
2022-12-12T01:50:59.704Z,49926.38
2022-12-12T01:53:29.631Z,49898.47
2022-12-12T01:55:57.659Z,49884.50
2022-12-12T01:58:24.837Z,49894.47
2022-12-12T02:00:51.847Z,49924.38
2022-12-12T02:03:18.699Z,49874.53
2022-12-12T02:05:54.815Z,49910.41
2022-12-12T02:08:23.147Z,49898.47
2022-12-12T02:10:50.323Z,49924.38
2022-12-12T02:13:22.292Z,49878.53
2022-12-12T02:16:06.498Z,49902.44
2022-12-12T02:19:15.334Z,49876.53
2022-12-12T02:21:51.809Z,49934.34
2022-12-12T02:24:27.263Z,49886.50
2022-12-12T02:27:12.075Z,49902.44
2022-12-12T02:29:47.362Z,49874.53
2022-12-12T02:32:38.062Z,49914.41
2022-12-12T02:35:23.459Z,49920.38
2022-12-12T02:37:56.045Z,49866.56
2022-12-12T02:40:56.572Z,49898.47
2022-12-12T02:43:31.274Z,49894.47
2022-12-12T02:46:04.233Z,49912.41
2022-12-12T02:48:42.192Z,49914.41
2022-12-12T02:51:12.057Z,49882.50
2022-12-12T02:53:38.701Z,49906.44
2022-12-12T02:56:09.383Z,49898.47
2022-12-12T02:58:38.678Z,49906.44
2022-12-12T03:01:42.025Z,49898.47
2022-12-12T03:05:00.710Z,49920.38
2022-12-12T03:07:59.853Z,49908.44
2022-12-12T03:10:32.439Z,49920.38
2022-12-12T03:13:02.084Z,49940.31
2022-12-12T03:15:50.168Z,49902.44
2022-12-12T03:18:31.285Z,49936.34
2022-12-12T03:21:23.582Z,49910.41
2022-12-12T03:23:54.541Z,49906.44
2022-12-12T03:26:52.151Z,49902.44
2022-12-12T03:29:27.140Z,49930.34
2022-12-12T03:31:59.633Z,49896.47
2022-12-12T03:34:30.897Z,49846.63
2022-12-12T03:37:13.272Z,49896.47
2022-12-12T03:39:49.711Z,49922.38
2022-12-12T03:42:22.693Z,49942.31
2022-12-12T03:44:57.117Z,49914.41
2022-12-12T03:47:33.009Z,49890.47
2022-12-12T03:50:10.153Z,49894.47
2022-12-12T03:52:50.070Z,49902.44
2022-12-12T03:55:24.313Z,49888.50
2022-12-12T03:57:53.749Z,49924.38
2022-12-12T04:00:20.420Z,49946.31
2022-12-12T04:03:05.936Z,49882.50
2022-12-12T04:06:08.475Z,49894.47
2022-12-12T04:08:35.424Z,49910.41
2022-12-12T04:11:31.874Z,49864.56
2022-12-12T04:14:41.840Z,49936.34
2022-12-12T04:17:15.150Z,49942.31
2022-12-12T04:20:14.930Z,49894.47
2022-12-12T04:23:07.392Z,49910.41
2022-12-12T04:26:12.819Z,49922.38
2022-12-12T04:28:44.567Z,49908.44
2022-12-12T04:31:12.987Z,49898.47
2022-12-12T04:33:52.541Z,49910.41
2022-12-12T04:36:22.130Z,49918.38
2022-12-12T04:38:51.876Z,49946.31
2022-12-12T04:41:21.272Z,49912.41
2022-12-12T04:43:50.729Z,49930.34
2022-12-12T04:46:24.372Z,49946.31
2022-12-12T04:49:13.943Z,49922.38
2022-12-12T04:51:48.716Z,49902.44
2022-12-12T04:54:28.863Z,49934.34
2022-12-12T04:57:00.587Z,49934.34
2022-12-12T04:59:28.289Z,49864.56
2022-12-12T05:02:00.707Z,49888.50
2022-12-12T05:04:44.122Z,49914.41
2022-12-12T05:07:17.724Z,49942.31
2022-12-12T05:09:44.735Z,49926.38
2022-12-12T05:12:11.423Z,49894.47
2022-12-12T05:14:38.033Z,49906.44
2022-12-12T05:17:11.772Z,49898.47
2022-12-12T05:19:38.402Z,49952.28
2022-12-12T05:22:05.091Z,49916.41
2022-12-12T05:24:32.023Z,49978.19
2022-12-12T05:27:00.311Z,49944.31
2022-12-12T05:29:26.914Z,49886.50
2022-12-12T05:31:53.579Z,49946.31
2022-12-12T05:34:20.191Z,49898.47
2022-12-12T05:36:47.918Z,49898.47
2022-12-12T05:39:14.630Z,49938.31
2022-12-12T05:41:41.292Z,49914.41
2022-12-12T05:44:07.887Z,49922.38
2022-12-12T05:46:34.579Z,49936.34
2022-12-12T05:49:01.527Z,49944.31
2022-12-12T05:51:28.274Z,49912.41
2022-12-12T05:53:54.926Z,49958.25
2022-12-12T05:56:21.552Z,49906.44
2022-12-12T05:58:48.155Z,49938.31
2022-12-12T06:01:14.831Z,49942.31
2022-12-12T06:03:41.975Z,49902.44
2022-12-12T06:06:08.631Z,49944.31
2022-12-12T06:08:35.341Z,49924.38
2022-12-12T06:11:05.348Z,49922.38
2022-12-12T06:13:32.168Z,49938.31
2022-12-12T06:15:58.809Z,49900.44
2022-12-12T06:18:25.590Z,49938.31
2022-12-12T06:21:01.918Z,49914.41
2022-12-12T06:23:28.588Z,49930.34
2022-12-12T06:25:55.188Z,49932.34
2022-12-12T06:28:21.797Z,49922.38
2022-12-12T06:30:48.435Z,49978.19
2022-12-12T06:33:15.105Z,49906.44
2022-12-12T06:35:41.714Z,49938.31
2022-12-12T06:38:08.319Z,49920.38
2022-12-12T06:40:34.977Z,49924.38
2022-12-12T06:43:01.692Z,49874.53
2022-12-12T06:45:28.292Z,49906.44
2022-12-12T06:47:54.914Z,49906.44
2022-12-12T06:50:23.855Z,49898.47
2022-12-12T06:52:50.785Z,49870.53
2022-12-12T06:55:17.370Z,49920.38
2022-12-12T06:57:43.988Z,49894.47
2022-12-12T07:00:10.911Z,49914.41
2022-12-12T07:02:37.596Z,49908.44
2022-12-12T07:05:04.452Z,49942.31
2022-12-12T07:07:31.069Z,49914.41
2022-12-12T07:09:57.680Z,49938.31
2022-12-12T07:12:24.368Z,49958.25
2022-12-12T07:14:51.020Z,49894.47
2022-12-12T07:17:17.670Z,49930.34
2022-12-12T07:19:44.313Z,49928.34
2022-12-12T07:22:11.015Z,49920.38
2022-12-12T07:24:38.154Z,49910.41
2022-12-12T07:27:04.868Z,49912.41
2022-12-12T07:29:31.480Z,49890.47
2022-12-12T07:31:58.167Z,49916.41
2022-12-12T07:34:24.853Z,49926.38
2022-12-12T07:36:51.471Z,49930.34
2022-12-12T07:39:20.979Z,49918.38
2022-12-12T07:41:48.337Z,49920.38
2022-12-12T07:44:19.827Z,49918.38
2022-12-12T07:46:46.472Z,49910.41
2022-12-12T07:49:13.361Z,49952.28
2022-12-12T07:51:44.164Z,49924.38
2022-12-12T07:54:13.893Z,49894.47
2022-12-12T07:56:40.918Z,49956.28
2022-12-12T07:59:07.826Z,49888.50
2022-12-12T08:01:34.534Z,49938.31
2022-12-12T08:04:02.031Z,49910.41
2022-12-12T08:06:28.728Z,49952.28
2022-12-12T08:08:55.381Z,49912.41
2022-12-12T08:11:24.376Z,49922.38
2022-12-12T08:13:51.750Z,49918.38
2022-12-12T08:16:24.112Z,49916.41
2022-12-12T08:18:54.338Z,49910.41
2022-12-12T08:21:25.813Z,49934.34
2022-12-12T08:24:01.003Z,49898.47
2022-12-12T08:26:28.636Z,49912.41
2022-12-12T08:28:56.628Z,49934.34
2022-12-12T08:31:23.700Z,49876.53
2022-12-12T08:33:50.892Z,49944.31
2022-12-12T08:36:32.512Z,49910.41
2022-12-12T08:39:04.011Z,49894.47
2022-12-12T08:41:30.679Z,49890.47
2022-12-12T08:43:57.643Z,49910.41
2022-12-12T08:46:24.326Z,49882.50
2022-12-12T08:48:51.087Z,49930.34
2022-12-12T08:51:18.361Z,49924.38
2022-12-12T08:53:46.514Z,49946.31
2022-12-12T08:56:13.649Z,49932.34
2022-12-12T08:58:40.334Z,49912.41
2022-12-12T09:01:16.168Z,49906.44
2022-12-12T09:03:43.015Z,49896.47
2022-12-12T09:06:10.374Z,49900.44
2022-12-12T09:08:38.254Z,49890.47
2022-12-12T09:11:04.883Z,49912.41
2022-12-12T09:13:32.250Z,49918.38
2022-12-12T09:16:00.012Z,49874.53
2022-12-12T09:18:27.021Z,49874.53
2022-12-12T09:20:57.552Z,49906.44
2022-12-12T09:23:26.015Z,49918.38
2022-12-12T09:25:53.484Z,49894.47
2022-12-12T09:28:22.251Z,49908.44
2022-12-12T09:30:49.741Z,49858.59
2022-12-12T09:33:17.849Z,49920.38
2022-12-12T09:35:44.588Z,49906.44
2022-12-12T09:38:14.709Z,49902.44
2022-12-12T09:40:57.109Z,49908.44
2022-12-12T09:44:07.965Z,49914.41
2022-12-12T09:46:39.743Z,49892.47
2022-12-12T09:49:23.981Z,49870.53
2022-12-12T09:51:52.318Z,49866.56
2022-12-12T09:54:22.875Z,49874.53
2022-12-12T09:57:21.121Z,49862.56
2022-12-12T09:59:57.689Z,49886.50
2022-12-12T10:02:40.125Z,49860.56
2022-12-12T10:05:21.726Z,49888.50
2022-12-12T10:07:51.391Z,49836.66
2022-12-12T10:10:31.334Z,49860.56
2022-12-12T10:12:59.698Z,49878.53
2022-12-12T10:15:37.952Z,49872.53
2022-12-12T10:18:14.224Z,49870.53
2022-12-12T10:21:02.438Z,49884.50
2022-12-12T10:23:41.214Z,49886.50
2022-12-12T10:26:16.306Z,49886.50
2022-12-12T10:28:42.947Z,49890.47
2022-12-12T10:31:15.380Z,49818.72
2022-12-12T10:34:09.822Z,49856.59
2022-12-12T10:37:04.328Z,49850.59
2022-12-12T10:39:59.589Z,49890.47
2022-12-12T10:42:44.581Z,49844.63
2022-12-12T10:45:14.291Z,49854.59
2022-12-12T10:47:41.348Z,49824.69
2022-12-12T10:50:19.791Z,49848.63
2022-12-12T10:52:46.449Z,49830.66
2022-12-12T10:55:22.563Z,49874.53
2022-12-12T10:58:01.280Z,49836.66
2022-12-12T11:00:39.463Z,49874.53
2022-12-12T11:03:28.120Z,49876.53
2022-12-12T11:05:58.412Z,49846.63
2022-12-12T11:08:25.069Z,49838.66
2022-12-12T11:11:19.504Z,49792.78
2022-12-12T11:13:50.310Z,49814.72
2022-12-12T11:16:39.531Z,49802.75
2022-12-12T11:19:16.036Z,49806.75
2022-12-12T11:21:43.045Z,49784.81
2022-12-12T11:24:14.674Z,49794.78
2022-12-12T11:26:57.868Z,49758.91
2022-12-12T11:29:46.266Z,49754.91
2022-12-12T11:32:17.476Z,49784.81
2022-12-12T11:34:49.045Z,49746.94
2022-12-12T11:37:21.912Z,49764.88
2022-12-12T11:39:53.606Z,49776.84
2022-12-12T11:42:26.710Z,49764.88
2022-12-12T11:45:02.947Z,49752.91
2022-12-12T11:47:38.641Z,49750.94
2022-12-12T11:50:16.932Z,49772.84
2022-12-12T11:52:43.762Z,49750.94
2022-12-12T11:55:16.594Z,49723.03
2022-12-12T11:58:03.859Z,49734.97
2022-12-12T12:00:43.631Z,49750.94
2022-12-12T12:03:45.504Z,49762.88
2022-12-12T12:06:58.025Z,49740.97
2022-12-12T12:09:40.718Z,49744.94
2022-12-12T12:12:20.313Z,49746.94
2022-12-12T12:15:00.826Z,49746.94
2022-12-12T12:17:33.355Z,49719.03
2022-12-12T12:20:26.105Z,49713.06
2022-12-12T12:23:20.422Z,49699.09
2022-12-12T12:25:56.130Z,49657.22
2022-12-12T12:28:47.480Z,49687.13
2022-12-12T12:31:34.312Z,49721.03
2022-12-12T12:34:20.841Z,49715.03
2022-12-12T12:36:59.565Z,49715.03
2022-12-12T12:39:53.557Z,49677.16
2022-12-12T12:42:57.045Z,49719.03
2022-12-12T12:45:23.627Z,49764.88
2022-12-12T12:47:58.928Z,49731.00
2022-12-12T12:50:41.039Z,49717.03
2022-12-12T12:53:15.964Z,49736.97
2022-12-12T12:55:49.639Z,49681.16
2022-12-12T12:58:24.499Z,49679.16
2022-12-12T13:01:02.577Z,49711.06
2022-12-12T13:03:37.935Z,49673.19
2022-12-12T13:06:12.812Z,49699.09
2022-12-12T13:08:53.993Z,49675.19
2022-12-12T13:11:35.333Z,49677.16
2022-12-12T13:14:15.748Z,49713.06
2022-12-12T13:16:44.699Z,49659.22
2022-12-12T13:19:20.837Z,49663.22
2022-12-12T13:22:10.514Z,49677.16
2022-12-12T13:25:03.062Z,49667.19
2022-12-12T13:27:38.879Z,49691.13
2022-12-12T13:30:26.035Z,49675.19
2022-12-12T13:33:04.763Z,49663.22
2022-12-12T13:35:47.934Z,49667.19
2022-12-12T13:38:21.972Z,49675.19
2022-12-12T13:41:01.043Z,49661.22
2022-12-12T13:43:43.947Z,49671.19
2022-12-12T13:46:28.750Z,49657.22
2022-12-12T13:49:06.439Z,49663.22
2022-12-12T13:51:37.569Z,49665.22
2022-12-12T13:54:12.089Z,49611.38
2022-12-12T13:57:05.574Z,49711.06
2022-12-12T13:59:53.661Z,49677.16
2022-12-12T14:02:32.586Z,49673.19
2022-12-12T14:05:10.491Z,49667.19
2022-12-12T14:07:38.471Z,49645.28
2022-12-12T14:10:34.349Z,49661.22
2022-12-12T14:13:16.133Z,49655.25
2022-12-12T14:15:44.894Z,49669.19
2022-12-12T14:18:23.704Z,49659.22
2022-12-12T14:20:57.964Z,49671.19
2022-12-12T14:23:30.797Z,49657.22
2022-12-12T14:25:59.904Z,49657.22
2022-12-12T14:28:31.644Z,49665.22
2022-12-12T14:31:17.094Z,49663.22
2022-12-12T14:33:56.730Z,49687.13
2022-12-12T14:36:38.193Z,49691.13
2022-12-12T14:39:19.825Z,49742.94
2022-12-12T14:41:47.513Z,49750.94
2022-12-12T14:44:35.569Z,49750.94
2022-12-12T14:47:08.621Z,49772.84
2022-12-12T14:49:35.408Z,49772.84
2022-12-12T14:52:02.469Z,49754.91
2022-12-12T14:54:31.183Z,49778.84
2022-12-12T14:56:59.110Z,49786.81
2022-12-12T14:59:27.479Z,49808.75
2022-12-12T15:02:46.402Z,49780.84
2022-12-12T15:05:14.711Z,49816.72
2022-12-12T15:07:41.522Z,49740.97
2022-12-12T15:10:27.228Z,49774.84
2022-12-12T15:12:54.213Z,49810.75
2022-12-12T15:15:26.484Z,49766.88
2022-12-12T15:17:55.585Z,49810.75
2022-12-12T15:20:25.850Z,49774.84
2022-12-12T15:22:58.692Z,49836.66
2022-12-12T15:25:29.320Z,49804.75
2022-12-12T15:27:56.814Z,49782.81
2022-12-12T15:30:36.852Z,49800.78
2022-12-12T15:33:06.299Z,49782.81
2022-12-12T15:35:33.154Z,49802.75
2022-12-12T15:38:02.253Z,49790.81
2022-12-12T15:40:36.264Z,49796.78
2022-12-12T15:43:07.161Z,49806.75
2022-12-12T15:45:36.973Z,49806.75
2022-12-12T15:48:05.570Z,49814.72
2022-12-12T15:50:47.075Z,49822.69
2022-12-12T15:53:22.540Z,49826.69
2022-12-12T15:56:13.748Z,49830.66
2022-12-12T15:58:46.955Z,49822.69
2022-12-12T16:01:20.390Z,49802.75
2022-12-12T16:04:08.604Z,49790.81
2022-12-12T16:06:37.856Z,49810.75
2022-12-12T16:09:07.268Z,49814.72
2022-12-12T16:11:37.339Z,49822.69
2022-12-12T16:14:09.573Z,49810.75
2022-12-12T16:16:46.000Z,49810.75
2022-12-12T16:19:37.784Z,49840.63
2022-12-12T16:22:28.331Z,49790.81
2022-12-12T16:25:09.124Z,49786.81
2022-12-12T16:27:35.949Z,49796.78
2022-12-12T16:30:02.666Z,49772.84
2022-12-12T16:32:29.302Z,49752.91
2022-12-12T16:34:55.937Z,49814.72
2022-12-12T16:37:22.636Z,49888.50
2022-12-12T16:39:49.466Z,49810.75
2022-12-12T16:42:18.836Z,49820.69
2022-12-12T16:44:46.290Z,49798.78
2022-12-12T16:47:22.152Z,49810.75
2022-12-12T16:49:49.946Z,49820.69
2022-12-12T16:52:18.492Z,49830.66
2022-12-12T16:54:52.864Z,49838.66
2022-12-12T16:57:21.831Z,49838.66
2022-12-12T16:59:48.653Z,49836.66
2022-12-12T17:02:21.778Z,49826.69
2022-12-12T17:04:50.203Z,49868.56
2022-12-12T17:07:16.876Z,49868.56
2022-12-12T17:09:43.957Z,49788.81
2022-12-12T17:12:12.898Z,49846.63
2022-12-12T17:14:39.598Z,49870.53
2022-12-12T17:17:06.651Z,49814.72
2022-12-12T17:19:33.317Z,49780.84
2022-12-12T17:22:00.679Z,49828.69
2022-12-12T17:24:27.562Z,49810.75
2022-12-12T17:26:54.308Z,49864.56
2022-12-12T17:29:21.079Z,49838.66
2022-12-12T17:31:48.182Z,49820.69
2022-12-12T17:34:15.138Z,49890.47
2022-12-12T17:36:42.005Z,49844.63
2022-12-12T17:39:08.621Z,49800.78
2022-12-12T17:41:35.276Z,49854.59
2022-12-12T17:44:02.031Z,49860.56
2022-12-12T17:46:29.888Z,49852.59
2022-12-12T17:48:58.503Z,49826.69
2022-12-12T17:51:25.738Z,49890.47
2022-12-12T17:53:52.770Z,49854.59
2022-12-12T17:56:24.431Z,49810.75
2022-12-12T17:58:51.208Z,49862.56
2022-12-12T18:01:24.479Z,49838.66
2022-12-12T18:03:52.155Z,49846.63
2022-12-12T18:06:20.215Z,49834.66
2022-12-12T18:08:47.594Z,49820.69
2022-12-12T18:11:26.927Z,49838.66
2022-12-12T18:13:57.473Z,49830.66
2022-12-12T18:16:27.138Z,49874.53
2022-12-12T18:18:56.182Z,49824.69
2022-12-12T18:24:12.226Z,49862.56
2022-12-12T18:26:40.368Z,49854.59
2022-12-12T18:29:08.176Z,49848.63
2022-12-12T18:31:35.991Z,49828.69
2022-12-12T18:34:02.760Z,49836.66
2022-12-12T18:36:31.077Z,49864.56
2022-12-12T18:39:00.094Z,49864.56
2022-12-12T18:41:28.284Z,49822.69
2022-12-12T18:43:55.798Z,49842.63
2022-12-12T18:46:26.483Z,49844.63
2022-12-12T18:48:53.505Z,49820.69
2022-12-12T18:51:23.267Z,49824.69
2022-12-12T18:53:51.274Z,49814.72
2022-12-12T18:56:20.879Z,49800.78
2022-12-12T18:58:48.085Z,49850.59
2022-12-12T19:01:18.931Z,49834.66
2022-12-12T19:03:48.815Z,49860.56
2022-12-12T19:06:18.754Z,49882.50
2022-12-12T19:08:46.122Z,49844.63
2022-12-12T19:11:13.115Z,49872.53
2022-12-12T19:13:40.122Z,49880.50
2022-12-12T19:16:16.044Z,49852.59
2022-12-12T19:18:43.745Z,49814.72
2022-12-12T19:21:20.287Z,49852.59
2022-12-12T19:23:47.905Z,49856.59
2022-12-12T19:26:28.052Z,49862.56
2022-12-12T19:28:59.410Z,49854.59
2022-12-12T19:31:26.608Z,49832.66
2022-12-12T19:33:53.311Z,49826.69
2022-12-12T19:36:22.394Z,49858.59
2022-12-12T19:38:49.558Z,49832.66
2022-12-12T19:41:18.190Z,49840.63
2022-12-12T19:43:46.437Z,49860.56
2022-12-12T19:46:15.901Z,49870.53
2022-12-12T19:48:44.319Z,49862.56
2022-12-12T19:51:16.269Z,49864.56
2022-12-12T19:53:49.415Z,49854.59
2022-12-12T19:56:18.448Z,49884.50
2022-12-12T19:58:45.373Z,49870.53
2022-12-12T20:01:15.619Z,49866.56
2022-12-12T20:03:42.439Z,49872.53
2022-12-12T20:06:11.261Z,49834.66
2022-12-12T20:08:38.512Z,49884.50
2022-12-12T20:11:11.049Z,49878.53
2022-12-12T20:13:38.366Z,49816.72
2022-12-12T20:16:14.771Z,49836.66
2022-12-12T20:18:42.228Z,49850.59
2022-12-12T20:21:20.502Z,49860.56
2022-12-12T20:23:57.295Z,49854.59
2022-12-12T20:26:27.883Z,49848.63
2022-12-12T20:28:56.401Z,49860.56
2022-12-12T20:31:26.286Z,49874.53
2022-12-12T20:33:56.137Z,49876.53
2022-12-12T20:36:25.858Z,49862.56
2022-12-12T20:38:52.722Z,49886.50
2022-12-12T20:41:25.378Z,49862.56
2022-12-12T20:43:54.963Z,49842.63
2022-12-12T20:46:24.697Z,49874.53
2022-12-12T20:48:51.679Z,49870.53
2022-12-12T20:51:53.556Z,49834.66
2022-12-12T20:54:08.423Z,49904.44
2022-12-12T20:56:42.895Z,49886.50
2022-12-12T20:59:12.701Z,49838.66
2022-12-12T21:01:39.362Z,49850.59
2022-12-12T21:04:09.377Z,49816.72
2022-12-12T21:06:39.354Z,49862.56
2022-12-12T21:09:09.427Z,49886.50
2022-12-12T21:11:37.800Z,49810.75
2022-12-12T21:14:05.883Z,49878.53
2022-12-12T21:16:35.925Z,49896.47
2022-12-12T21:19:06.624Z,49882.50
2022-12-12T21:21:33.734Z,49878.53
2022-12-12T21:24:00.788Z,49882.50
2022-12-12T21:26:30.702Z,49874.53
2022-12-12T21:28:59.901Z,49886.50
2022-12-12T21:31:29.281Z,49854.59
2022-12-12T21:33:56.708Z,49890.47
2022-12-12T21:36:24.514Z,49890.47
2022-12-12T21:38:51.554Z,49874.53
2022-12-12T21:41:20.342Z,49896.47
2022-12-12T21:43:48.506Z,49862.56
2022-12-12T21:46:21.829Z,49866.56
2022-12-12T21:49:09.299Z,49910.41
2022-12-12T21:51:36.256Z,49882.50
2022-12-12T21:54:04.810Z,49878.53
2022-12-12T21:56:31.970Z,49886.50
2022-12-12T21:58:59.114Z,49862.56
2022-12-12T22:01:26.085Z,49866.56
2022-12-12T22:03:53.668Z,49844.63
2022-12-12T22:06:23.259Z,49918.38
2022-12-12T22:08:50.238Z,49882.50
2022-12-12T22:11:34.008Z,49846.63
2022-12-12T22:14:06.470Z,49866.56
2022-12-12T22:16:33.643Z,49824.69
2022-12-12T22:19:05.834Z,49876.53
2022-12-12T22:21:33.987Z,49880.50
2022-12-12T22:24:01.092Z,49858.59
2022-12-12T22:26:27.720Z,49832.66
2022-12-12T22:28:57.533Z,49894.47
2022-12-12T22:31:26.558Z,49852.59
2022-12-12T22:34:01.723Z,49878.53
2022-12-12T22:36:32.071Z,49864.56
2022-12-12T22:38:59.774Z,49864.56
2022-12-12T22:41:28.848Z,49898.47
2022-12-12T22:44:01.058Z,49860.56
2022-12-12T22:46:28.901Z,49870.53
2022-12-12T22:48:58.048Z,49880.50
2022-12-12T22:51:28.205Z,49866.56
2022-12-12T22:53:58.566Z,49870.53
2022-12-12T22:56:25.400Z,49902.44
2022-12-12T22:58:52.080Z,49894.47
2022-12-12T23:01:21.085Z,49880.50
2022-12-12T23:03:48.246Z,49922.38
2022-12-12T23:06:16.288Z,49862.56
2022-12-12T23:08:43.320Z,49866.56
2022-12-12T23:11:13.220Z,49882.50
2022-12-12T23:13:42.720Z,49862.56
2022-12-12T23:16:12.405Z,49908.44
2022-12-12T23:18:40.344Z,49898.47
2022-12-12T23:21:16.298Z,49878.53
2022-12-12T23:23:43.743Z,49854.59
2022-12-12T23:26:16.034Z,49908.44
2022-12-12T23:28:43.564Z,49876.53
2022-12-12T23:31:22.018Z,49894.47
2022-12-12T23:33:53.801Z,49872.53
2022-12-12T23:36:21.435Z,49878.53
2022-12-12T23:38:48.517Z,49872.53
2022-12-12T23:41:16.325Z,49894.47
2022-12-12T23:43:43.227Z,49878.53
2022-12-12T23:46:33.288Z,49874.53
2022-12-12T23:49:23.932Z,49856.59
2022-12-12T23:51:53.477Z,49898.47
2022-12-12T23:54:27.175Z,49880.50
2022-12-12T23:56:54.881Z,49866.56
2022-12-12T23:59:21.743Z,49916.41
